sensor_id;sensor_type;location;lat;lon;timestamp;P1;durP1;ratioP1;P2;durP2;ratioP2
21894;SDS011;11112;51.270;7.224;2023-12-28T00:02:07;5.50;;;2.28;;
21894;SDS011;11112;51.270;7.224;2023-12-28T00:05:01;5.22;;;2.10;;
21894;SDS011;11112;51.270;7.224;2023-12-28T00:08:03;5.03;;;2.10;;
21894;SDS011;11112;51.270;7.224;2023-12-28T00:11:14;4.75;;;2.20;;
21894;SDS011;11112;51.270;7.224;2023-12-28T00:14:06;4.68;;;2.28;;
21894;SDS011;11112;51.270;7.224;2023-12-28T00:16:59;6.32;;;2.30;;
21894;SDS011;11112;51.270;7.224;2023-12-28T00:19:52;4.15;;;2.20;;
21894;SDS011;11112;51.270;7.224;2023-12-28T00:22:45;5.03;;;2.25;;
21894;SDS011;11112;51.270;7.224;2023-12-28T00:25:41;4.45;;;2.30;;
21894;SDS011;11112;51.270;7.224;2023-12-28T00:28:34;4.97;;;2.22;;
21894;SDS011;11112;51.270;7.224;2023-12-28T00:31:26;4.60;;;2.20;;
21894;SDS011;11112;51.270;7.224;2023-12-28T00:34:03;4.78;;;2.25;;
21894;SDS011;11112;51.270;7.224;2023-12-28T00:36:55;4.93;;;2.10;;
21894;SDS011;11112;51.270;7.224;2023-12-28T00:39:47;4.53;;;2.30;;
21894;SDS011;11112;51.270;7.224;2023-12-28T00:42:44;5.63;;;2.70;;
21894;SDS011;11112;51.270;7.224;2023-12-28T00:45:37;3.58;;;1.98;;
21894;SDS011;11112;51.270;7.224;2023-12-28T00:48:29;4.35;;;2.20;;
21894;SDS011;11112;51.270;7.224;2023-12-28T00:51:22;6.80;;;2.10;;
21894;SDS011;11112;51.270;7.224;2023-12-28T00:54:14;4.13;;;2.35;;
21894;SDS011;11112;51.270;7.224;2023-12-28T00:56:49;3.88;;;2.03;;
21894;SDS011;11112;51.270;7.224;2023-12-28T00:59:45;4.70;;;2.20;;
21894;SDS011;11112;51.270;7.224;2023-12-28T01:02:38;4.35;;;2.33;;
21894;SDS011;11112;51.270;7.224;2023-12-28T01:05:31;3.42;;;1.95;;
21894;SDS011;11112;51.270;7.224;2023-12-28T01:08:24;5.22;;;2.30;;
21894;SDS011;11112;51.270;7.224;2023-12-28T01:11:20;4.85;;;1.83;;
21894;SDS011;11112;51.270;7.224;2023-12-28T01:14:13;4.20;;;2.17;;
21894;SDS011;11112;51.270;7.224;2023-12-28T01:17:10;2.70;;;1.88;;
21894;SDS011;11112;51.270;7.224;2023-12-28T01:20:06;3.42;;;1.95;;
21894;SDS011;11112;51.270;7.224;2023-12-28T01:22:58;5.25;;;1.90;;
21894;SDS011;11112;51.270;7.224;2023-12-28T01:25:47;4.60;;;2.03;;
21894;SDS011;11112;51.270;7.224;2023-12-28T01:28:41;3.85;;;1.90;;
21894;SDS011;11112;51.270;7.224;2023-12-28T01:31:34;6.88;;;1.85;;
21894;SDS011;11112;51.270;7.224;2023-12-28T01:34:31;3.22;;;1.88;;
21894;SDS011;11112;51.270;7.224;2023-12-28T01:37:23;3.72;;;1.80;;
21894;SDS011;11112;51.270;7.224;2023-12-28T01:40:17;2.97;;;1.80;;
21894;SDS011;11112;51.270;7.224;2023-12-28T01:43:09;4.55;;;2.17;;
21894;SDS011;11112;51.270;7.224;2023-12-28T01:46:02;4.20;;;1.77;;
21894;SDS011;11112;51.270;7.224;2023-12-28T01:48:57;4.68;;;1.80;;
21894;SDS011;11112;51.270;7.224;2023-12-28T01:51:56;3.08;;;1.63;;
21894;SDS011;11112;51.270;7.224;2023-12-28T01:54:50;3.60;;;1.67;;
21894;SDS011;11112;51.270;7.224;2023-12-28T01:57:42;3.25;;;1.85;;
21894;SDS011;11112;51.270;7.224;2023-12-28T02:00:37;3.55;;;1.75;;
21894;SDS011;11112;51.270;7.224;2023-12-28T02:03:30;5.10;;;1.90;;
21894;SDS011;11112;51.270;7.224;2023-12-28T02:06:23;4.50;;;2.00;;
21894;SDS011;11112;51.270;7.224;2023-12-28T02:09:20;3.95;;;1.98;;
21894;SDS011;11112;51.270;7.224;2023-12-28T02:12:12;3.47;;;1.90;;
21894;SDS011;11112;51.270;7.224;2023-12-28T02:15:05;3.97;;;1.90;;
21894;SDS011;11112;51.270;7.224;2023-12-28T02:18:08;4.07;;;1.90;;
21894;SDS011;11112;51.270;7.224;2023-12-28T02:21:07;3.58;;;1.90;;
21894;SDS011;11112;51.270;7.224;2023-12-28T02:24:01;4.72;;;1.90;;
21894;SDS011;11112;51.270;7.224;2023-12-28T02:26:58;5.10;;;1.88;;
21894;SDS011;11112;51.270;7.224;2023-12-28T02:29:51;5.38;;;1.80;;
21894;SDS011;11112;51.270;7.224;2023-12-28T02:32:54;3.30;;;1.80;;
21894;SDS011;11112;51.270;7.224;2023-12-28T02:36:01;2.90;;;1.60;;
21894;SDS011;11112;51.270;7.224;2023-12-28T02:38:55;4.00;;;1.80;;
21894;SDS011;11112;51.270;7.224;2023-12-28T02:41:49;2.97;;;1.60;;
21894;SDS011;11112;51.270;7.224;2023-12-28T02:44:47;3.80;;;1.75;;
21894;SDS011;11112;51.270;7.224;2023-12-28T02:47:40;4.18;;;1.88;;
21894;SDS011;11112;51.270;7.224;2023-12-28T02:50:33;2.28;;;1.50;;
21894;SDS011;11112;51.270;7.224;2023-12-28T02:53:31;2.72;;;1.50;;
21894;SDS011;11112;51.270;7.224;2023-12-28T02:56:26;4.20;;;1.50;;
21894;SDS011;11112;51.270;7.224;2023-12-28T02:59:24;3.25;;;1.60;;
21894;SDS011;11112;51.270;7.224;2023-12-28T03:02:18;4.13;;;1.70;;
21894;SDS011;11112;51.270;7.224;2023-12-28T03:05:11;3.55;;;1.80;;
21894;SDS011;11112;51.270;7.224;2023-12-28T03:08:04;2.90;;;1.50;;
21894;SDS011;11112;51.270;7.224;2023-12-28T03:11:03;3.30;;;1.67;;
21894;SDS011;11112;51.270;7.224;2023-12-28T03:13:56;3.23;;;1.30;;
21894;SDS011;11112;51.270;7.224;2023-12-28T03:16:36;2.97;;;1.63;;
21894;SDS011;11112;51.270;7.224;2023-12-28T03:19:17;3.17;;;1.30;;
21894;SDS011;11112;51.270;7.224;2023-12-28T03:22:10;2.75;;;1.58;;
21894;SDS011;11112;51.270;7.224;2023-12-28T03:25:03;3.25;;;1.35;;
21894;SDS011;11112;51.270;7.224;2023-12-28T03:27:58;3.50;;;1.20;;
21894;SDS011;11112;51.270;7.224;2023-12-28T03:30:56;2.42;;;1.30;;
21894;SDS011;11112;51.270;7.224;2023-12-28T03:33:55;2.85;;;1.20;;
21894;SDS011;11112;51.270;7.224;2023-12-28T03:36:47;2.67;;;1.30;;
21894;SDS011;11112;51.270;7.224;2023-12-28T03:39:41;3.72;;;1.27;;
21894;SDS011;11112;51.270;7.224;2023-12-28T03:42:34;3.45;;;1.40;;
21894;SDS011;11112;51.270;7.224;2023-12-28T03:45:28;3.67;;;1.60;;
21894;SDS011;11112;51.270;7.224;2023-12-28T03:48:29;2.80;;;1.40;;
21894;SDS011;11112;51.270;7.224;2023-12-28T03:51:27;1.83;;;1.00;;
21894;SDS011;11112;51.270;7.224;2023-12-28T03:54:31;3.08;;;1.27;;
21894;SDS011;11112;51.270;7.224;2023-12-28T03:57:26;2.45;;;1.10;;
21894;SDS011;11112;51.270;7.224;2023-12-28T04:00:19;1.80;;;1.10;;
21894;SDS011;11112;51.270;7.224;2023-12-28T04:03:11;2.45;;;1.08;;
21894;SDS011;11112;51.270;7.224;2023-12-28T04:05:50;3.72;;;1.10;;
21894;SDS011;11112;51.270;7.224;2023-12-28T04:08:48;3.40;;;1.63;;
21894;SDS011;11112;51.270;7.224;2023-12-28T04:11:39;2.78;;;1.20;;
21894;SDS011;11112;51.270;7.224;2023-12-28T04:14:15;2.92;;;1.10;;
21894;SDS011;11112;51.270;7.224;2023-12-28T04:17:07;2.10;;;1.30;;
21894;SDS011;11112;51.270;7.224;2023-12-28T04:20:00;3.85;;;1.35;;
21894;SDS011;11112;51.270;7.224;2023-12-28T04:22:53;3.13;;;1.15;;
21894;SDS011;11112;51.270;7.224;2023-12-28T04:28:49;2.70;;;1.20;;
21894;SDS011;11112;51.270;7.224;2023-12-28T04:31:42;2.72;;;1.30;;
21894;SDS011;11112;51.270;7.224;2023-12-28T04:34:35;3.22;;;1.27;;
21894;SDS011;11112;51.270;7.224;2023-12-28T04:37:28;3.65;;;1.30;;
21894;SDS011;11112;51.270;7.224;2023-12-28T04:40:22;3.47;;;1.45;;
21894;SDS011;11112;51.270;7.224;2023-12-28T04:43:21;3.60;;;1.08;;
21894;SDS011;11112;51.270;7.224;2023-12-28T04:46:13;2.65;;;1.20;;
21894;SDS011;11112;51.270;7.224;2023-12-28T04:49:07;3.15;;;1.20;;
21894;SDS011;11112;51.270;7.224;2023-12-28T04:51:59;3.33;;;1.35;;
21894;SDS011;11112;51.270;7.224;2023-12-28T04:54:52;3.83;;;1.20;;
21894;SDS011;11112;51.270;7.224;2023-12-28T04:57:45;2.85;;;1.27;;
21894;SDS011;11112;51.270;7.224;2023-12-28T05:00:48;2.55;;;1.20;;
21894;SDS011;11112;51.270;7.224;2023-12-28T05:03:43;3.83;;;1.30;;
21894;SDS011;11112;51.270;7.224;2023-12-28T05:06:35;3.25;;;1.25;;
21894;SDS011;11112;51.270;7.224;2023-12-28T05:09:27;2.80;;;1.25;;
21894;SDS011;11112;51.270;7.224;2023-12-28T05:12:19;3.55;;;1.38;;
21894;SDS011;11112;51.270;7.224;2023-12-28T05:15:21;4.20;;;1.50;;
21894;SDS011;11112;51.270;7.224;2023-12-28T05:18:20;4.22;;;1.25;;
21894;SDS011;11112;51.270;7.224;2023-12-28T05:21:10;2.45;;;1.35;;
21894;SDS011;11112;51.270;7.224;2023-12-28T05:24:10;3.78;;;1.30;;
21894;SDS011;11112;51.270;7.224;2023-12-28T05:27:03;2.80;;;1.38;;
21894;SDS011;11112;51.270;7.224;2023-12-28T05:29:54;2.88;;;1.63;;
21894;SDS011;11112;51.270;7.224;2023-12-28T05:32:53;3.70;;;1.30;;
21894;SDS011;11112;51.270;7.224;2023-12-28T05:35:44;4.68;;;1.50;;
21894;SDS011;11112;51.270;7.224;2023-12-28T05:38:25;4.03;;;1.30;;
21894;SDS011;11112;51.270;7.224;2023-12-28T05:41:18;3.15;;;1.45;;
21894;SDS011;11112;51.270;7.224;2023-12-28T05:44:10;4.47;;;1.58;;
21894;SDS011;11112;51.270;7.224;2023-12-28T05:47:03;4.57;;;1.70;;
21894;SDS011;11112;51.270;7.224;2023-12-28T05:49:56;3.00;;;1.45;;
21894;SDS011;11112;51.270;7.224;2023-12-28T05:52:53;2.90;;;1.30;;
21894;SDS011;11112;51.270;7.224;2023-12-28T05:55:50;5.03;;;1.38;;
21894;SDS011;11112;51.270;7.224;2023-12-28T05:58:43;5.18;;;1.50;;
21894;SDS011;11112;51.270;7.224;2023-12-28T06:01:43;3.95;;;1.35;;
21894;SDS011;11112;51.270;7.224;2023-12-28T06:04:35;4.10;;;1.55;;
21894;SDS011;11112;51.270;7.224;2023-12-28T06:07:28;4.45;;;1.60;;
21894;SDS011;11112;51.270;7.224;2023-12-28T06:10:24;4.00;;;1.60;;
21894;SDS011;11112;51.270;7.224;2023-12-28T06:13:17;4.50;;;1.48;;
21894;SDS011;11112;51.270;7.224;2023-12-28T06:16:15;3.60;;;1.60;;
21894;SDS011;11112;51.270;7.224;2023-12-28T06:19:08;3.95;;;1.40;;
21894;SDS011;11112;51.270;7.224;2023-12-28T06:22:01;5.03;;;1.80;;
21894;SDS011;11112;51.270;7.224;2023-12-28T06:24:58;3.22;;;1.65;;
21894;SDS011;11112;51.270;7.224;2023-12-28T06:27:56;5.32;;;1.92;;
21894;SDS011;11112;51.270;7.224;2023-12-28T06:30:57;3.42;;;1.50;;
21894;SDS011;11112;51.270;7.224;2023-12-28T06:33:48;4.72;;;1.92;;
21894;SDS011;11112;51.270;7.224;2023-12-28T06:36:48;4.95;;;1.60;;
21894;SDS011;11112;51.270;7.224;2023-12-28T06:39:41;3.95;;;1.60;;
21894;SDS011;11112;51.270;7.224;2023-12-28T06:42:33;4.47;;;1.50;;
21894;SDS011;11112;51.270;7.224;2023-12-28T06:45:30;4.95;;;1.77;;
21894;SDS011;11112;51.270;7.224;2023-12-28T06:48:23;3.45;;;1.50;;
21894;SDS011;11112;51.270;7.224;2023-12-28T06:51:18;4.90;;;1.80;;
21894;SDS011;11112;51.270;7.224;2023-12-28T06:54:10;5.47;;;1.50;;
21894;SDS011;11112;51.270;7.224;2023-12-28T06:57:02;4.78;;;1.35;;
21894;SDS011;11112;51.270;7.224;2023-12-28T06:59:55;4.95;;;1.75;;
21894;SDS011;11112;51.270;7.224;2023-12-28T07:02:52;4.97;;;1.60;;
21894;SDS011;11112;51.270;7.224;2023-12-28T07:05:50;5.53;;;1.83;;
21894;SDS011;11112;51.270;7.224;2023-12-28T07:08:33;10.45;;;1.80;;
21894;SDS011;11112;51.270;7.224;2023-12-28T07:11:26;4.00;;;1.73;;
21894;SDS011;11112;51.270;7.224;2023-12-28T07:14:09;3.83;;;1.55;;
21894;SDS011;11112;51.270;7.224;2023-12-28T07:17:01;5.40;;;1.80;;
21894;SDS011;11112;51.270;7.224;2023-12-28T07:20:08;3.28;;;1.33;;
21894;SDS011;11112;51.270;7.224;2023-12-28T07:23:02;7.05;;;1.90;;
21894;SDS011;11112;51.270;7.224;2023-12-28T07:25:55;4.43;;;1.60;;
21894;SDS011;11112;51.270;7.224;2023-12-28T07:28:47;4.53;;;1.88;;
21894;SDS011;11112;51.270;7.224;2023-12-28T07:31:40;4.10;;;1.55;;
21894;SDS011;11112;51.270;7.224;2023-12-28T07:34:29;4.38;;;1.60;;
21894;SDS011;11112;51.270;7.224;2023-12-28T07:37:29;6.63;;;1.92;;
21894;SDS011;11112;51.270;7.224;2023-12-28T07:40:22;7.85;;;1.92;;
21894;SDS011;11112;51.270;7.224;2023-12-28T07:43:14;6.45;;;1.70;;
21894;SDS011;11112;51.270;7.224;2023-12-28T07:46:05;7.43;;;1.90;;
21894;SDS011;11112;51.270;7.224;2023-12-28T07:49:05;7.90;;;1.88;;
21894;SDS011;11112;51.270;7.224;2023-12-28T07:51:57;7.20;;;1.73;;
21894;SDS011;11112;51.270;7.224;2023-12-28T07:54:56;6.13;;;1.75;;
21894;SDS011;11112;51.270;7.224;2023-12-28T07:57:36;7.50;;;1.70;;
21894;SDS011;11112;51.270;7.224;2023-12-28T08:00:29;6.60;;;1.75;;
21894;SDS011;11112;51.270;7.224;2023-12-28T08:03:18;6.28;;;1.90;;
21894;SDS011;11112;51.270;7.224;2023-12-28T08:06:13;9.48;;;1.92;;
21894;SDS011;11112;51.270;7.224;2023-12-28T08:09:10;6.18;;;1.60;;
21894;SDS011;11112;51.270;7.224;2023-12-28T08:12:08;8.32;;;1.80;;
21894;SDS011;11112;51.270;7.224;2023-12-28T08:15:01;5.85;;;1.83;;
21894;SDS011;11112;51.270;7.224;2023-12-28T08:17:54;8.73;;;1.90;;
21894;SDS011;11112;51.270;7.224;2023-12-28T08:20:46;6.03;;;1.80;;
21894;SDS011;11112;51.270;7.224;2023-12-28T08:23:38;10.85;;;4.55;;
21894;SDS011;11112;51.270;7.224;2023-12-28T08:26:36;6.10;;;1.80;;
21894;SDS011;11112;51.270;7.224;2023-12-28T08:29:35;6.30;;;1.73;;
21894;SDS011;11112;51.270;7.224;2023-12-28T08:32:28;6.35;;;1.80;;
21894;SDS011;11112;51.270;7.224;2023-12-28T08:35:21;5.57;;;1.90;;
21894;SDS011;11112;51.270;7.224;2023-12-28T08:38:14;6.47;;;1.95;;
21894;SDS011;11112;51.270;7.224;2023-12-28T08:41:05;6.15;;;1.50;;
21894;SDS011;11112;51.270;7.224;2023-12-28T08:44:05;6.55;;;1.98;;
21894;SDS011;11112;51.270;7.224;2023-12-28T08:47:03;8.88;;;2.10;;
21894;SDS011;11112;51.270;7.224;2023-12-28T08:49:55;6.90;;;1.70;;
21894;SDS011;11112;51.270;7.224;2023-12-28T08:52:40;12.23;;;2.30;;
21894;SDS011;11112;51.270;7.224;2023-12-28T08:55:33;7.60;;;2.13;;
21894;SDS011;11112;51.270;7.224;2023-12-28T08:58:23;4.60;;;1.60;;
21894;SDS011;11112;51.270;7.224;2023-12-28T09:01:08;9.60;;;1.73;;
21894;SDS011;11112;51.270;7.224;2023-12-28T09:04:06;6.75;;;1.90;;
21894;SDS011;11112;51.270;7.224;2023-12-28T09:06:59;9.02;;;1.90;;
21894;SDS011;11112;51.270;7.224;2023-12-28T09:09:51;5.93;;;1.65;;
21894;SDS011;11112;51.270;7.224;2023-12-28T09:12:45;7.18;;;1.40;;
21894;SDS011;11112;51.270;7.224;2023-12-28T09:15:40;8.80;;;1.60;;
21894;SDS011;11112;51.270;7.224;2023-12-28T09:18:31;8.23;;;1.77;;
21894;SDS011;11112;51.270;7.224;2023-12-28T09:21:19;5.82;;;1.70;;
21894;SDS011;11112;51.270;7.224;2023-12-28T09:24:15;5.60;;;1.65;;
21894;SDS011;11112;51.270;7.224;2023-12-28T09:26:53;7.25;;;2.25;;
21894;SDS011;11112;51.270;7.224;2023-12-28T09:29:40;9.50;;;1.70;;
21894;SDS011;11112;51.270;7.224;2023-12-28T09:32:33;7.15;;;2.38;;
21894;SDS011;11112;51.270;7.224;2023-12-28T09:35:36;8.52;;;1.73;;
21894;SDS011;11112;51.270;7.224;2023-12-28T09:38:35;6.60;;;1.95;;
21894;SDS011;11112;51.270;7.224;2023-12-28T09:41:24;10.07;;;1.92;;
21894;SDS011;11112;51.270;7.224;2023-12-28T09:44:27;6.18;;;1.75;;
21894;SDS011;11112;51.270;7.224;2023-12-28T09:47:22;8.80;;;1.75;;
21894;SDS011;11112;51.270;7.224;2023-12-28T09:50:16;10.25;;;2.10;;
21894;SDS011;11112;51.270;7.224;2023-12-28T09:53:11;7.28;;;1.65;;
21894;SDS011;11112;51.270;7.224;2023-12-28T09:56:08;7.82;;;2.03;;
21894;SDS011;11112;51.270;7.224;2023-12-28T09:59:02;7.80;;;2.03;;
21894;SDS011;11112;51.270;7.224;2023-12-28T10:01:55;8.23;;;1.98;;
21894;SDS011;11112;51.270;7.224;2023-12-28T10:04:47;9.85;;;1.95;;
21894;SDS011;11112;51.270;7.224;2023-12-28T10:07:31;9.88;;;1.70;;
21894;SDS011;11112;51.270;7.224;2023-12-28T10:10:28;6.88;;;1.70;;
21894;SDS011;11112;51.270;7.224;2023-12-28T10:13:32;8.02;;;2.05;;
21894;SDS011;11112;51.270;7.224;2023-12-28T10:16:25;8.60;;;1.70;;
21894;SDS011;11112;51.270;7.224;2023-12-28T10:19:22;7.13;;;1.58;;
21894;SDS011;11112;51.270;7.224;2023-12-28T10:22:10;6.82;;;1.63;;
21894;SDS011;11112;51.270;7.224;2023-12-28T10:25:03;7.35;;;1.80;;
21894;SDS011;11112;51.270;7.224;2023-12-28T10:28:05;8.00;;;1.90;;
21894;SDS011;11112;51.270;7.224;2023-12-28T10:31:08;9.35;;;1.98;;
21894;SDS011;11112;51.270;7.224;2023-12-28T10:34:01;8.32;;;1.77;;
21894;SDS011;11112;51.270;7.224;2023-12-28T10:36:55;7.90;;;1.85;;
21894;SDS011;11112;51.270;7.224;2023-12-28T10:42:41;7.07;;;1.60;;
21894;SDS011;11112;51.270;7.224;2023-12-28T10:45:39;6.40;;;1.63;;
21894;SDS011;11112;51.270;7.224;2023-12-28T10:48:41;11.38;;;2.10;;
21894;SDS011;11112;51.270;7.224;2023-12-28T10:51:33;6.10;;;1.48;;
21894;SDS011;11112;51.270;7.224;2023-12-28T10:54:32;9.13;;;1.90;;
21894;SDS011;11112;51.270;7.224;2023-12-28T10:57:33;7.60;;;1.70;;
21894;SDS011;11112;51.270;7.224;2023-12-28T11:00:33;5.70;;;1.38;;
21894;SDS011;11112;51.270;7.224;2023-12-28T11:03:46;5.60;;;1.60;;
21894;SDS011;11112;51.270;7.224;2023-12-28T11:06:55;8.75;;;1.50;;
21894;SDS011;11112;51.270;7.224;2023-12-28T11:09:49;7.18;;;1.75;;
21894;SDS011;11112;51.270;7.224;2023-12-28T11:12:43;9.85;;;1.92;;
21894;SDS011;11112;51.270;7.224;2023-12-28T11:15:38;9.45;;;1.80;;
21894;SDS011;11112;51.270;7.224;2023-12-28T11:18:37;7.95;;;1.90;;
21894;SDS011;11112;51.270;7.224;2023-12-28T11:21:35;8.35;;;1.63;;
21894;SDS011;11112;51.270;7.224;2023-12-28T11:24:30;9.63;;;1.80;;
21894;SDS011;11112;51.270;7.224;2023-12-28T11:27:23;8.93;;;1.90;;
21894;SDS011;11112;51.270;7.224;2023-12-28T11:30:21;7.03;;;1.80;;
21894;SDS011;11112;51.270;7.224;2023-12-28T11:33:19;9.77;;;1.83;;
21894;SDS011;11112;51.270;7.224;2023-12-28T11:36:26;10.35;;;2.05;;
21894;SDS011;11112;51.270;7.224;2023-12-28T11:39:36;13.20;;;2.15;;
21894;SDS011;11112;51.270;7.224;2023-12-28T11:42:32;6.38;;;1.58;;
21894;SDS011;11112;51.270;7.224;2023-12-28T11:45:33;7.95;;;1.70;;
21894;SDS011;11112;51.270;7.224;2023-12-28T11:48:35;7.97;;;1.75;;
21894;SDS011;11112;51.270;7.224;2023-12-28T11:51:38;8.48;;;1.70;;
21894;SDS011;11112;51.270;7.224;2023-12-28T11:54:49;9.52;;;1.67;;
21894;SDS011;11112;51.270;7.224;2023-12-28T11:57:41;5.85;;;1.35;;
21894;SDS011;11112;51.270;7.224;2023-12-28T12:00:35;9.88;;;2.08;;
21894;SDS011;11112;51.270;7.224;2023-12-28T12:03:27;12.35;;;2.13;;
21894;SDS011;11112;51.270;7.224;2023-12-28T12:06:21;8.13;;;1.88;;
21894;SDS011;11112;51.270;7.224;2023-12-28T12:09:17;6.97;;;1.90;;
21894;SDS011;11112;51.270;7.224;2023-12-28T12:12:04;10.85;;;2.03;;
21894;SDS011;11112;51.270;7.224;2023-12-28T12:15:00;9.95;;;1.65;;
21894;SDS011;11112;51.270;7.224;2023-12-28T12:17:53;11.68;;;1.85;;
21894;SDS011;11112;51.270;7.224;2023-12-28T12:20:50;9.68;;;1.90;;
21894;SDS011;11112;51.270;7.224;2023-12-28T12:23:56;6.93;;;1.60;;
21894;SDS011;11112;51.270;7.224;2023-12-28T12:26:49;7.03;;;1.60;;
21894;SDS011;11112;51.270;7.224;2023-12-28T12:29:42;10.32;;;1.88;;
21894;SDS011;11112;51.270;7.224;2023-12-28T12:32:35;12.10;;;2.00;;
21894;SDS011;11112;51.270;7.224;2023-12-28T12:35:35;8.30;;;1.70;;
21894;SDS011;11112;51.270;7.224;2023-12-28T12:38:27;12.02;;;1.77;;
21894;SDS011;11112;51.270;7.224;2023-12-28T12:41:24;12.73;;;2.08;;
21894;SDS011;11112;51.270;7.224;2023-12-28T12:44:17;9.32;;;2.08;;
21894;SDS011;11112;51.270;7.224;2023-12-28T12:47:14;8.02;;;1.90;;
21894;SDS011;11112;51.270;7.224;2023-12-28T12:50:14;11.15;;;2.22;;
21894;SDS011;11112;51.270;7.224;2023-12-28T12:53:13;14.57;;;2.90;;
21894;SDS011;11112;51.270;7.224;2023-12-28T12:56:18;8.52;;;2.10;;
21894;SDS011;11112;51.270;7.224;2023-12-28T12:59:16;9.38;;;1.98;;
21894;SDS011;11112;51.270;7.224;2023-12-28T13:02:09;8.52;;;2.10;;
21894;SDS011;11112;51.270;7.224;2023-12-28T13:05:04;8.63;;;1.77;;
21894;SDS011;11112;51.270;7.224;2023-12-28T13:07:42;16.67;;;3.13;;
21894;SDS011;11112;51.270;7.224;2023-12-28T13:10:35;10.15;;;1.92;;
21894;SDS011;11112;51.270;7.224;2023-12-28T13:13:32;9.43;;;1.80;;
21894;SDS011;11112;51.270;7.224;2023-12-28T13:16:26;13.10;;;3.45;;
21894;SDS011;11112;51.270;7.224;2023-12-28T13:19:24;11.13;;;1.80;;
21894;SDS011;11112;51.270;7.224;2023-12-28T13:22:18;10.13;;;1.90;;
21894;SDS011;11112;51.270;7.224;2023-12-28T13:25:11;12.73;;;2.40;;
21894;SDS011;11112;51.270;7.224;2023-12-28T13:28:02;8.55;;;2.30;;
21894;SDS011;11112;51.270;7.224;2023-12-28T13:30:59;8.90;;;1.98;;
21894;SDS011;11112;51.270;7.224;2023-12-28T13:33:51;10.45;;;2.40;;
21894;SDS011;11112;51.270;7.224;2023-12-28T13:36:39;9.82;;;2.00;;
21894;SDS011;11112;51.270;7.224;2023-12-28T13:39:35;9.07;;;2.00;;
21894;SDS011;11112;51.270;7.224;2023-12-28T13:42:32;11.20;;;2.47;;
21894;SDS011;11112;51.270;7.224;2023-12-28T13:45:23;8.90;;;2.20;;
21894;SDS011;11112;51.270;7.224;2023-12-28T13:48:25;9.93;;;2.00;;
21894;SDS011;11112;51.270;7.224;2023-12-28T13:51:18;8.20;;;2.17;;
21894;SDS011;11112;51.270;7.224;2023-12-28T13:54:12;9.13;;;1.70;;
21894;SDS011;11112;51.270;7.224;2023-12-28T13:57:05;9.55;;;2.13;;
21894;SDS011;11112;51.270;7.224;2023-12-28T13:59:58;8.23;;;2.10;;
21894;SDS011;11112;51.270;7.224;2023-12-28T14:02:50;10.73;;;2.17;;
21894;SDS011;11112;51.270;7.224;2023-12-28T14:05:42;7.95;;;1.85;;
21894;SDS011;11112;51.270;7.224;2023-12-28T14:08:21;7.60;;;2.30;;
21894;SDS011;11112;51.270;7.224;2023-12-28T14:11:13;10.48;;;2.25;;
21894;SDS011;11112;51.270;7.224;2023-12-28T14:14:06;11.02;;;2.75;;
21894;SDS011;11112;51.270;7.224;2023-12-28T14:17:01;9.07;;;2.40;;
21894;SDS011;11112;51.270;7.224;2023-12-28T14:19:54;9.95;;;2.90;;
21894;SDS011;11112;51.270;7.224;2023-12-28T14:22:52;9.55;;;2.45;;
21894;SDS011;11112;51.270;7.224;2023-12-28T14:25:46;9.00;;;2.08;;
21894;SDS011;11112;51.270;7.224;2023-12-28T14:28:35;6.95;;;1.92;;
21894;SDS011;11112;51.270;7.224;2023-12-28T14:31:21;8.10;;;1.60;;
21894;SDS011;11112;51.270;7.224;2023-12-28T14:34:17;7.88;;;1.58;;
21894;SDS011;11112;51.270;7.224;2023-12-28T14:37:11;5.85;;;1.60;;
21894;SDS011;11112;51.270;7.224;2023-12-28T14:40:09;8.82;;;1.85;;
21894;SDS011;11112;51.270;7.224;2023-12-28T14:43:04;7.70;;;1.95;;
21894;SDS011;11112;51.270;7.224;2023-12-28T14:45:57;10.27;;;2.10;;
21894;SDS011;11112;51.270;7.224;2023-12-28T14:48:49;6.95;;;1.70;;
21894;SDS011;11112;51.270;7.224;2023-12-28T14:51:42;11.38;;;1.75;;
21894;SDS011;11112;51.270;7.224;2023-12-28T14:54:35;9.15;;;1.95;;
21894;SDS011;11112;51.270;7.224;2023-12-28T14:57:33;8.68;;;1.90;;
21894;SDS011;11112;51.270;7.224;2023-12-28T15:00:24;6.30;;;1.67;;
21894;SDS011;11112;51.270;7.224;2023-12-28T15:03:17;15.07;;;2.33;;
21894;SDS011;11112;51.270;7.224;2023-12-28T15:05:54;6.70;;;1.48;;
21894;SDS011;11112;51.270;7.224;2023-12-28T15:08:47;9.63;;;1.60;;
21894;SDS011;11112;51.270;7.224;2023-12-28T15:11:40;7.03;;;1.50;;
21894;SDS011;11112;51.270;7.224;2023-12-28T15:14:39;12.90;;;1.65;;
21894;SDS011;11112;51.270;7.224;2023-12-28T15:17:32;11.02;;;2.40;;
21894;SDS011;11112;51.270;7.224;2023-12-28T15:20:26;9.00;;;1.70;;
21894;SDS011;11112;51.270;7.224;2023-12-28T15:23:20;9.60;;;1.80;;
21894;SDS011;11112;51.270;7.224;2023-12-28T15:26:14;11.18;;;2.40;;
21894;SDS011;11112;51.270;7.224;2023-12-28T15:29:06;9.27;;;2.08;;
21894;SDS011;11112;51.270;7.224;2023-12-28T15:34:53;7.38;;;1.48;;
21894;SDS011;11112;51.270;7.224;2023-12-28T15:37:47;6.45;;;1.60;;
21894;SDS011;11112;51.270;7.224;2023-12-28T15:40:40;9.02;;;1.80;;
21894;SDS011;11112;51.270;7.224;2023-12-28T15:43:36;7.38;;;1.95;;
21894;SDS011;11112;51.270;7.224;2023-12-28T15:46:28;9.55;;;1.90;;
21894;SDS011;11112;51.270;7.224;2023-12-28T15:49:26;9.25;;;1.95;;
21894;SDS011;11112;51.270;7.224;2023-12-28T15:52:17;7.60;;;1.88;;
21894;SDS011;11112;51.270;7.224;2023-12-28T15:55:19;9.25;;;1.80;;
21894;SDS011;11112;51.270;7.224;2023-12-28T15:58:11;8.75;;;1.80;;
21894;SDS011;11112;51.270;7.224;2023-12-28T16:01:04;7.05;;;2.30;;
21894;SDS011;11112;51.270;7.224;2023-12-28T16:03:53;9.63;;;2.42;;
21894;SDS011;11112;51.270;7.224;2023-12-28T16:06:31;8.68;;;2.20;;
21894;SDS011;11112;51.270;7.224;2023-12-28T16:09:26;7.75;;;1.90;;
21894;SDS011;11112;51.270;7.224;2023-12-28T16:12:19;8.77;;;1.70;;
21894;SDS011;11112;51.270;7.224;2023-12-28T16:15:12;8.05;;;2.10;;
21894;SDS011;11112;51.270;7.224;2023-12-28T16:18:09;9.45;;;1.90;;
21894;SDS011;11112;51.270;7.224;2023-12-28T16:21:02;6.47;;;1.80;;
21894;SDS011;11112;51.270;7.224;2023-12-28T16:23:59;8.52;;;1.88;;
21894;SDS011;11112;51.270;7.224;2023-12-28T16:27:01;8.30;;;2.10;;
21894;SDS011;11112;51.270;7.224;2023-12-28T16:30:00;7.95;;;2.30;;
21894;SDS011;11112;51.270;7.224;2023-12-28T16:32:53;8.10;;;1.85;;
21894;SDS011;11112;51.270;7.224;2023-12-28T16:35:45;11.90;;;2.40;;
21894;SDS011;11112;51.270;7.224;2023-12-28T16:38:45;10.85;;;2.40;;
21894;SDS011;11112;51.270;7.224;2023-12-28T16:41:44;7.32;;;2.03;;
21894;SDS011;11112;51.270;7.224;2023-12-28T16:44:35;8.07;;;2.08;;
21894;SDS011;11112;51.270;7.224;2023-12-28T16:47:28;7.35;;;2.10;;
21894;SDS011;11112;51.270;7.224;2023-12-28T16:50:03;9.30;;;2.17;;
21894;SDS011;11112;51.270;7.224;2023-12-28T16:52:56;6.70;;;1.83;;
21894;SDS011;11112;51.270;7.224;2023-12-28T16:55:52;8.15;;;1.70;;
21894;SDS011;11112;51.270;7.224;2023-12-28T16:58:46;8.77;;;2.08;;
21894;SDS011;11112;51.270;7.224;2023-12-28T17:01:38;9.73;;;2.60;;
21894;SDS011;11112;51.270;7.224;2023-12-28T17:04:24;8.57;;;2.15;;
21894;SDS011;11112;51.270;7.224;2023-12-28T17:07:16;7.97;;;2.10;;
21894;SDS011;11112;51.270;7.224;2023-12-28T17:10:08;9.57;;;2.30;;
21894;SDS011;11112;51.270;7.224;2023-12-28T17:13:05;6.28;;;2.00;;
21894;SDS011;11112;51.270;7.224;2023-12-28T17:15:59;8.43;;;2.35;;
21894;SDS011;11112;51.270;7.224;2023-12-28T17:18:50;8.43;;;2.10;;
21894;SDS011;11112;51.270;7.224;2023-12-28T17:21:43;8.13;;;2.47;;
21894;SDS011;11112;51.270;7.224;2023-12-28T17:24:36;8.30;;;1.80;;
21894;SDS011;11112;51.270;7.224;2023-12-28T17:27:45;9.23;;;1.90;;
21894;SDS011;11112;51.270;7.224;2023-12-28T17:30:48;9.75;;;1.70;;
21894;SDS011;11112;51.270;7.224;2023-12-28T17:33:40;6.35;;;1.70;;
21894;SDS011;11112;51.270;7.224;2023-12-28T17:36:13;7.53;;;1.65;;